Time;durP1;ratioP1;P1;durP2;ratioP2;P2;SDS_P1;SDS_P2;PMS_P1;PMS_P2;Temp;Humidity;BMP_temperature;BMP_pressure;BME280_temperature;BME280_humidity;BME280_pressure;Samples;Min_cycle;Max_cycle;Signal;HPM_P1;HPM_P2
2022/03/22 00:00:17;;;;;;;;;26.00;23.75;;;;;12.45;56.16;102623.97;2451061;27;45393;-94
2022/03/22 00:01:27;;;;;;;;;28.25;24.50;;;;;12.43;56.01;102623.09;2447055;27;45385;-94
2022/03/22 00:02:38;;;;;;;;;26.25;23.75;;;;;12.45;56.08;102632.75;2444156;28;45149;-94
2022/03/22 00:03:48;;;;;;;;;26.75;23.00;;;;;12.43;56.27;102617.81;2451801;27;46434;-94
2022/03/22 00:04:59;;;;;;;;;29.00;23.75;;;;;12.40;56.60;102623.13;2451286;28;44591;-94
2022/03/22 00:06:09;;;;;;;;;33.25;25.50;;;;;12.41;56.39;102630.16;2451379;28;46337;-94
2022/03/22 00:07:19;;;;;;;;;32.50;28.00;;;;;12.37;56.57;102627.53;2450949;28;45484;-93
2022/03/22 00:08:30;;;;;;;;;32.00;27.75;;;;;12.37;56.27;102627.53;2438630;28;47273;-93
2022/03/22 00:09:40;;;;;;;;;30.50;23.50;;;;;12.35;56.51;102636.38;2435383;28;44681;-92
2022/03/22 00:10:50;;;;;;;;;33.50;30.75;;;;;12.34;56.53;102634.63;2443786;28;47228;-91
2022/03/22 00:12:01;;;;;;;;;30.25;27.75;;;;;12.31;56.73;102632.91;2443077;28;45202;-90
2022/03/22 00:13:11;;;;;;;;;31.75;27.25;;;;;12.33;56.45;102633.75;2443686;28;47069;-90
2022/03/22 00:14:22;;;;;;;;;30.25;27.25;;;;;12.31;56.40;102637.28;2439780;28;44632;-92
2022/03/22 00:15:33;;;;;;;;;24.75;24.75;;;;;12.30;56.56;102639.03;2442826;28;45363;-94
2022/03/22 00:16:44;;;;;;;;;29.75;26.25;;;;;12.28;56.43;102632.91;2451911;28;44683;-94
2022/03/22 00:17:54;;;;;;;;;34.75;28.75;;;;;12.26;56.58;102635.59;2452485;27;48352;-95
2022/03/22 00:19:05;;;;;;;;;31.75;25.75;;;;;12.25;56.46;102643.47;2453757;27;45181;-95
2022/03/22 00:20:16;;;;;;;;;8.75;8.00;;;;;12.20;56.67;102638.25;2450426;27;45492;-95
2022/03/22 00:21:27;;;;;;;;;32.00;29.50;;;;;12.21;56.32;102642.66;2442268;28;45169;-95
2022/03/22 00:22:40;;;;;;;;;31.50;28.50;;;;;12.20;56.62;102646.16;2441986;28;47397;-95
2022/03/22 00:23:50;;;;;;;;;28.50;25.00;;;;;12.19;56.77;102647.06;2442535;28;45224;-94
2022/03/22 00:25:01;;;;;;;;;35.00;28.75;;;;;12.16;56.99;102644.47;2450534;27;46357;-94
2022/03/22 00:26:12;;;;;;;;;33.00;28.25;;;;;12.15;56.84;102647.97;2450872;28;45243;-93
2022/03/22 00:27:22;;;;;;;;;31.75;28.00;;;;;12.14;57.04;102649.75;2449014;28;45760;-93
2022/03/22 00:28:33;;;;;;;;;32.75;29.00;;;;;12.11;56.68;102648.84;2451542;27;45201;-92
2022/03/22 00:29:44;;;;;;;;;31.75;27.75;;;;;12.09;57.11;102651.53;2446304;28;47287;-92
2022/03/22 00:30:55;;;;;;;;;35.00;29.00;;;;;12.09;57.08;102651.53;2444018;28;45247;-92
2022/03/22 00:32:08;;;;;;;;;31.00;29.00;;;;;12.07;57.00;102648.03;2443417;28;48348;-92
2022/03/22 00:33:18;;;;;;;;;28.25;28.00;;;;;12.04;57.11;102648.94;2440944;28;45235;-92
2022/03/22 00:34:29;;;;;;;;;31.25;28.25;;;;;12.03;57.06;102652.44;2450360;27;47269;-92
2022/03/22 00:35:41;;;;;;;;;29.00;28.75;;;;;12.03;57.25;102660.34;2454363;27;45226;-92
2022/03/22 00:36:53;;;;;;;;;34.00;29.25;;;;;12.00;57.07;102656.88;2440760;28;48007;-92
2022/03/22 00:38:06;;;;;;;;;36.00;29.25;;;;;11.99;57.09;102661.25;2441390;28;45396;-92
2022/03/22 00:39:18;;;;;;;;;33.00;27.75;;;;;11.96;56.98;102660.41;2440273;28;47204;-92
2022/03/22 00:40:28;;;;;;;;;32.50;28.25;;;;;11.95;57.30;102663.94;2449219;28;45339;-92
2022/03/22 00:41:39;;;;;;;;;32.75;30.00;;;;;11.91;57.29;102656.03;2445231;28;45640;-90
2022/03/22 00:42:53;;;;;;;;;34.00;29.50;;;;;11.92;57.38;102665.72;2443218;28;45231;-90
2022/03/22 00:44:04;;;;;;;;;36.75;31.25;;;;;11.90;57.16;102664.81;2450599;27;47065;-88
2022/03/22 00:45:18;;;;;;;;;31.50;28.50;;;;;11.88;57.43;102665.72;2440728;28;44700;-88
2022/03/22 00:46:28;;;;;;;;;25.00;23.25;;;;;11.88;57.37;102660.44;2440928;28;46358;-88
2022/03/22 00:47:38;;;;;;;;;35.25;29.25;;;;;11.86;57.54;102663.09;2444321;28;45315;-88
2022/03/22 00:48:49;;;;;;;;;28.75;25.50;;;;;11.82;57.36;102651.75;2447919;28;45283;-90
2022/03/22 00:50:00;;;;;;;;;33.50;29.00;;;;;11.82;57.54;102664.03;2440871;28;44535;-91
2022/03/22 00:51:10;;;;;;;;;34.75;30.75;;;;;11.82;57.55;102658.75;2439681;28;45633;-91
2022/03/22 00:52:20;;;;;;;;;32.25;28.00;;;;;11.79;57.65;102653.50;2441653;28;45132;-91
2022/03/22 00:53:31;;;;;;;;;34.00;29.25;;;;;11.78;57.74;102663.16;2442972;28;48236;-91
2022/03/22 00:54:41;;;;;;;;;31.75;29.25;;;;;11.77;57.77;102657.91;2450337;28;45316;-91
2022/03/22 00:55:52;;;;;;;;;33.50;30.75;;;;;11.75;57.73;102655.31;2442670;27;46217;-91
2022/03/22 00:57:02;;;;;;;;;32.75;29.25;;;;;11.72;57.64;102651.81;2441639;28;44720;-91
2022/03/22 00:58:13;;;;;;;;;33.75;29.50;;;;;11.72;57.67;102657.06;2448081;28;47039;-91
2022/03/22 01:00:52;;;;;;;;;36.25;31.50;;;;;11.65;57.62;102650.97;2441493;28;45751;-90
2022/03/22 01:02:03;;;;;;;;;34.50;31.25;;;;;11.64;57.71;102652.72;2448783;28;45357;-91
2022/03/22 01:03:14;;;;;;;;;35.75;29.00;;;;;11.63;57.94;102648.34;2443233;28;47244;-89
2022/03/22 01:04:24;;;;;;;;;34.50;30.00;;;;;11.62;58.16;102653.63;2450607;28;45306;-90
2022/03/22 01:05:35;;;;;;;;;33.00;30.00;;;;;11.59;57.92;102655.41;2451002;27;45388;-87
2022/03/22 01:06:46;;;;;;;;;36.00;30.50;;;;;11.56;58.02;102646.63;2448692;27;45428;-88
2022/03/22 01:07:59;;;;;;;;;38.25;30.00;;;;;11.55;57.79;102652.78;2440548;28;47015;-88
2022/03/22 01:09:10;;;;;;;;;38.50;32.25;;;;;11.55;58.15;102651.03;2442717;28;45295;-87
2022/03/22 01:10:23;;;;;;;;;40.00;32.50;;;;;11.52;57.95;102650.16;2442273;28;45352;-87
2022/03/22 01:11:33;;;;;;;;;35.25;30.00;;;;;11.52;58.16;102647.53;2450700;27;45362;-87
2022/03/22 01:12:45;;;;;;;;;30.75;30.00;;;;;11.51;58.10;102651.91;2440459;28;46972;-87
2022/03/22 01:13:56;;;;;;;;;37.25;31.50;;;;;11.47;58.10;102644.94;2442950;28;45392;-87
2022/03/22 01:15:15;;;;;;;;;31.75;27.50;;;;;11.48;58.14;102652.81;2440232;28;48149;-86
2022/03/22 01:16:25;;;;;;;;;36.00;30.00;;;;;11.46;58.12;102646.69;2453585;27;45192;-86
2022/03/22 01:17:37;;;;;;;;;34.50;30.00;;;;;11.46;58.41;102648.44;2442316;27;45435;-86
2022/03/22 01:18:47;;;;;;;;;36.50;31.50;;;;;11.43;58.25;102648.47;2441116;28;44781;-86
2022/03/22 01:19:58;;;;;;;;;33.00;26.25;;;;;11.41;58.15;102645.84;2440983;28;45283;-90
2022/03/22 01:21:10;;;;;;;;;37.00;30.25;;;;;11.38;58.21;102640.59;2449730;28;45156;-86
2022/03/22 01:22:20;;;;;;;;;32.00;30.00;;;;;11.36;58.40;102640.59;2444544;28;47907;-87
2022/03/22 01:23:30;;;;;;;;;32.25;29.00;;;;;11.37;58.32;102638.84;2442476;28;45201;-87
2022/03/22 01:24:42;;;;;;;;;39.00;31.75;;;;;11.35;58.19;102640.63;2450625;27;46409;-86
2022/03/22 01:25:52;;;;;;;;;33.50;29.25;;;;;11.34;58.28;102641.50;2450960;27;45211;-86
2022/03/22 01:27:04;;;;;;;;;35.00;30.50;;;;;11.33;58.29;102639.75;2446402;28;46129;-86
2022/03/22 01:28:15;;;;;;;;;29.00;27.50;;;;;11.33;58.72;102645.03;2441184;28;45432;-87
2022/03/22 01:29:25;;;;;;;;;43.75;32.00;;;;;11.31;58.25;102647.66;2441196;28;46551;-86
2022/03/22 01:30:36;;;;;;;;;34.75;29.50;;;;;11.30;58.48;102645.03;2441116;28;45298;-86
2022/03/22 01:31:49;;;;;;;;;33.75;30.00;;;;;11.28;58.41;102647.69;2441061;28;45383;-86
2022/03/22 01:32:59;;;;;;;;;33.50;27.00;;;;;11.28;58.55;102641.53;2441256;28;45311;-88
2022/03/22 01:34:10;;;;;;;;;35.75;30.00;;;;;11.29;58.37;102643.28;2447010;28;48015;-88
2022/03/22 01:35:23;;;;;;;;;32.75;30.00;;;;;11.26;58.76;102644.16;2450305;28;45420;-87
2022/03/22 01:36:33;;;;;;;;;32.25;29.50;;;;;11.26;58.62;102641.53;2459522;27;47085;-85
2022/03/22 01:37:47;;;;;;;;;31.00;30.00;;;;;11.25;58.64;102640.69;2447926;27;45373;-85
2022/03/22 01:38:58;;;;;;;;;30.50;29.75;;;;;11.22;58.48;102642.44;2443033;28;48161;-85
2022/03/22 01:40:10;;;;;;;;;35.25;31.00;;;;;11.21;58.70;102649.44;2440675;28;45257;-86
2022/03/22 01:41:20;;;;;;;;;33.25;27.75;;;;;11.19;58.51;102648.59;2440895;28;45287;-87
2022/03/22 01:42:30;;;;;;;;;36.25;30.25;;;;;11.19;58.72;102653.84;2441097;28;45210;-87
2022/03/22 01:43:41;;;;;;;;;32.50;30.50;;;;;11.18;58.75;102646.84;2440897;28;46057;-87
2022/03/22 01:44:52;;;;;;;;;31.75;29.50;;;;;11.18;58.67;102652.13;2441222;28;45187;-88
2022/03/22 01:46:03;;;;;;;;;36.75;31.00;;;;;11.15;58.77;102652.13;2441160;28;45402;-87
2022/03/22 01:47:16;;;;;;;;;31.75;30.00;;;;;11.14;58.55;102651.25;2443279;28;45408;-87
2022/03/22 01:48:26;;;;;;;;;33.00;28.25;;;;;11.15;58.59;102652.13;2450047;28;47121;-87
2022/03/22 01:49:37;;;;;;;;;30.50;29.00;;;;;11.11;58.58;102647.75;2441011;28;45378;-87
2022/03/22 01:50:47;;;;;;;;;37.50;31.00;;;;;11.11;58.69;102651.25;2439973;28;47304;-87
2022/03/22 01:51:58;;;;;;;;;33.00;28.25;;;;;11.11;58.69;102648.63;2440557;28;45212;-88
2022/03/22 01:53:10;;;;;;;;;34.75;32.25;;;;;11.10;58.63;102648.63;2447856;28;48454;-91
2022/03/22 01:54:20;;;;;;;;;34.25;27.00;;;;;11.07;58.75;102646.88;2446144;28;45169;-93
2022/03/22 01:55:31;;;;;;;;;33.00;30.00;;;;;11.07;58.82;102643.38;2441284;28;46281;-93
2022/03/22 01:56:41;;;;;;;;;36.25;31.25;;;;;11.05;58.83;102643.41;2450009;28;44571;-92
2022/03/22 01:57:52;;;;;;;;;28.50;26.75;;;;;11.02;58.61;102641.66;2442794;28;48181;-93
2022/03/22 01:59:02;;;;;;;;;29.00;28.50;;;;;11.01;58.52;102639.03;2450500;28;45256;-92
2022/03/22 02:00:16;;;;;;;;;34.50;30.00;;;;;11.00;59.00;102640.78;2450429;27;45411;-90
2022/03/22 02:05:58;;;;;;;;;33.50;29.50;;;;;10.93;58.91;102641.69;2442530;28;45806;-86
2022/03/22 02:07:09;;;;;;;;;36.50;30.25;;;;;10.93;59.03;102643.44;2442996;28;45208;-85
2022/03/22 02:08:28;;;;;;;;;32.50;29.00;;;;;10.93;59.01;102643.44;2442513;28;46057;-85
2022/03/22 02:09:38;;;;;;;;;29.00;28.00;;;;;10.87;58.80;102631.16;2442735;28;45208;-85
2022/03/22 02:10:48;;;;;;;;;35.75;29.25;;;;;10.87;59.42;102641.69;2443899;28;45331;-85
2022/03/22 02:11:59;;;;;;;;;33.50;29.25;;;;;10.87;59.15;102644.31;2442739;28;44566;-84
2022/03/22 02:13:10;;;;;;;;;34.00;31.25;;;;;10.86;59.13;102645.22;2445661;28;45616;-84
2022/03/22 02:14:21;;;;;;;;;35.50;31.75;;;;;10.82;59.04;102640.84;2446279;28;45186;-85
2022/03/22 02:15:31;;;;;;;;;29.00;27.00;;;;;10.80;58.91;102631.22;2443095;28;45529;-84
2022/03/22 02:16:43;;;;;;;;;27.00;25.75;;;;;10.78;58.86;102635.59;2459204;27;45479;-84
2022/03/22 02:17:54;;;;;;;;;28.00;22.50;;;;;10.77;58.98;102639.09;2442345;27;45453;-87
2022/03/22 02:19:09;;;;;;;;;34.00;30.00;;;;;10.78;59.28;102648.75;2442667;28;44759;-87
2022/03/22 02:20:19;;;;;;;;;28.25;25.00;;;;;10.75;58.99;102639.97;2442285;28;45289;-85
2022/03/22 02:21:31;;;;;;;;;30.75;29.00;;;;;10.74;59.25;102636.47;2442533;28;45412;-85
2022/03/22 02:22:58;;;;;;;;;31.75;29.50;;;;;10.72;59.40;102640.03;2442581;28;45454;-86
2022/03/22 02:24:09;;;;;;;;;33.75;27.00;;;;;10.70;58.94;102640.00;2442269;28;45433;-85
2022/03/22 02:25:19;;;;;;;;;40.75;30.00;;;;;10.69;59.03;102641.75;2441597;28;47573;-87
2022/03/22 02:26:29;;;;;;;;;29.00;25.00;;;;;10.69;59.01;102635.63;2442011;28;45401;-87
2022/03/22 02:27:40;;;;;;;;;31.25;29.25;;;;;10.69;59.12;102639.13;2442607;28;46155;-90
2022/03/22 02:28:55;;;;;;;;;33.00;29.25;;;;;10.68;59.26;102641.78;2441834;28;45515;-87
2022/03/22 02:30:07;;;;;;;;;26.75;25.50;;;;;10.65;59.37;102641.78;2454710;27;47120;-88
2022/03/22 02:31:18;;;;;;;;;30.00;26.25;;;;;10.65;59.38;102647.03;2458701;27;45437;-88
2022/03/22 02:32:28;;;;;;;;;30.75;26.00;;;;;10.63;59.25;102638.28;2448818;27;45458;-90
2022/03/22 02:33:42;;;;;;;;;27.75;24.75;;;;;10.62;59.40;102634.75;2441932;28;45189;-93
2022/03/22 02:34:52;;;;;;;;;26.00;24.50;;;;;10.62;59.24;102641.78;2435255;28;47018;-93
2022/03/22 02:36:03;;;;;;;;;29.75;27.75;;;;;10.62;59.03;102641.78;2434974;28;45236;-93
2022/03/22 02:37:13;;;;;;;;;28.75;27.75;;;;;10.59;59.21;102647.94;2435562;28;47233;-91
2022/03/22 02:38:23;;;;;;;;;31.50;26.25;;;;;10.60;59.38;102643.53;2444576;28;45304;-91
2022/03/22 02:39:34;;;;;;;;;33.75;28.50;;;;;10.60;59.37;102643.53;2442108;28;48044;-91
2022/03/22 02:40:46;;;;;;;;;33.00;29.25;;;;;10.57;59.42;102647.91;2454139;27;45461;-92
2022/03/22 02:41:56;;;;;;;;;32.50;30.00;;;;;10.56;59.67;102646.19;2449497;28;47214;-92
2022/03/22 02:43:08;;;;;;;;;25.50;24.25;;;;;10.56;59.57;102645.31;2448401;28;44733;-83
2022/03/22 02:44:19;;;;;;;;;32.75;28.50;;;;;10.56;59.63;102648.81;2451272;28;46592;-83
2022/03/22 02:45:29;;;;;;;;;33.75;28.25;;;;;10.53;59.53;102638.28;2447513;27;44838;-87
2022/03/22 02:46:40;;;;;;;;;27.25;24.75;;;;;10.53;59.53;102643.56;2448293;28;45343;-88
2022/03/22 02:47:50;;;;;;;;;31.25;28.25;;;;;10.52;59.65;102641.78;2449617;27;45215;-85
2022/03/22 02:49:01;;;;;;;;;29.75;26.25;;;;;10.50;59.39;102640.91;2442233;28;46316;-85
2022/03/22 02:50:12;;;;;;;;;28.00;25.50;;;;;10.50;59.48;102642.63;2450686;28;44747;-88
2022/03/22 02:51:22;;;;;;;;;30.25;29.25;;;;;10.49;59.27;102644.41;2451842;27;45632;-87
2022/03/22 02:52:33;;;;;;;;;32.75;29.25;;;;;10.47;59.39;102652.28;2448427;27;45230;-87
2022/03/22 02:53:43;;;;;;;;;33.00;29.25;;;;;10.47;59.62;102646.16;2447320;28;47390;-87
2022/03/22 02:54:53;;;;;;;;;28.00;24.75;;;;;10.45;59.91;102642.66;2443370;28;44771;-88
2022/03/22 02:56:04;;;;;;;;;33.25;28.00;;;;;10.42;59.69;102640.06;2451512;28;45432;-88
2022/03/22 02:57:14;;;;;;;;;31.25;25.00;;;;;10.41;59.57;102647.06;2444835;28;45340;-88
2022/03/22 02:58:25;;;;;;;;;24.00;19.75;;;;;10.41;59.63;102646.19;2434286;28;46971;-88
2022/03/22 02:59:35;;;;;;;;;29.50;27.75;;;;;10.39;59.59;102640.94;2434473;28;45378;-88
2022/03/22 03:00:46;;;;;;;;;32.25;29.00;;;;;10.39;59.96;102646.19;2441465;28;45583;-88
2022/03/22 03:01:57;;;;;;;;;33.25;30.00;;;;;10.38;59.68;102648.78;2442069;28;45246;-87
2022/03/22 03:03:08;;;;;;;;;31.00;26.75;;;;;10.38;59.64;102649.69;2443197;28;45309;-88
2022/03/22 03:04:18;;;;;;;;;29.50;25.25;;;;;10.34;59.58;102656.72;2442352;28;45211;-87
2022/03/22 03:05:28;;;;;;;;;32.75;28.50;;;;;10.34;59.56;102647.94;2441900;28;45414;-87
2022/03/22 03:06:39;;;;;;;;;30.00;26.00;;;;;10.33;59.70;102654.06;2441412;28;45409;-87
2022/03/22 03:07:50;;;;;;;;;29.50;25.50;;;;;10.31;59.83;102653.19;2441342;28;46086;-87
2022/03/22 03:09:01;;;;;;;;;26.75;25.25;;;;;10.32;59.62;102654.97;2441310;28;45310;-86
2022/03/22 03:10:12;;;;;;;;;37.00;30.50;;;;;10.28;59.35;102659.31;2449886;28;45266;-86
2022/03/22 03:11:23;;;;;;;;;32.00;27.00;;;;;10.28;59.45;102654.06;2442144;28;45282;-88
2022/03/22 03:12:34;;;;;;;;;30.50;29.50;;;;;10.29;59.66;102653.22;2442326;28;45292;-88
2022/03/22 03:15:13;;;;;;;;;32.25;29.00;;;;;10.29;59.75;102661.09;2441908;28;45774;-85
2022/03/22 03:16:24;;;;;;;;;30.00;28.00;;;;;10.27;59.48;102659.34;2452983;27;44729;-84
2022/03/22 03:17:35;;;;;;;;;32.50;29.75;;;;;10.25;60.23;102659.31;2451778;27;45429;-84
2022/03/22 03:18:45;;;;;;;;;34.00;29.00;;;;;10.24;59.81;102655.84;2444377;27;45353;-85
2022/03/22 03:19:56;;;;;;;;;34.25;28.50;;;;;10.24;59.43;102658.47;2441524;28;46190;-85
2022/03/22 03:21:06;;;;;;;;;34.00;28.50;;;;;10.23;60.01;102663.72;2442036;28;45279;-85
2022/03/22 03:22:18;;;;;;;;;32.00;26.25;;;;;10.22;59.63;102659.34;2447262;28;46727;-85
2022/03/22 03:23:28;;;;;;;;;33.00;28.00;;;;;10.20;59.63;102651.44;2442136;28;44771;-85
2022/03/22 03:24:38;;;;;;;;;30.00;29.25;;;;;10.20;59.79;102659.31;2441308;28;45329;-85
2022/03/22 03:25:49;;;;;;;;;33.25;29.75;;;;;10.21;59.83;102654.94;2448945;28;45224;-85
2022/03/22 03:26:59;;;;;;;;;29.25;25.00;;;;;10.21;59.56;102660.22;2451162;28;46429;-85
2022/03/22 03:28:10;;;;;;;;;26.75;26.75;;;;;10.19;59.82;102659.34;2451952;27;45280;-85
2022/03/22 03:29:20;;;;;;;;;33.75;28.50;;;;;10.17;59.70;102656.72;2450762;27;45313;-85
2022/03/22 03:30:30;;;;;;;;;27.50;25.50;;;;;10.15;59.49;102661.06;2441743;28;44802;-85
2022/03/22 03:31:41;;;;;;;;;33.00;28.25;;;;;10.16;59.66;102665.47;2434066;28;47085;-85
2022/03/22 03:32:51;;;;;;;;;32.25;29.25;;;;;10.16;59.43;102675.09;2444119;28;44673;-85
2022/03/22 03:34:02;;;;;;;;;34.00;30.75;;;;;10.13;59.90;102661.09;2440916;28;48201;-85
2022/03/22 03:35:13;;;;;;;;;31.25;27.00;;;;;10.12;59.69;102669.84;2438860;28;45343;-86
2022/03/22 03:36:23;;;;;;;;;33.75;29.75;;;;;10.13;59.96;102675.97;2450221;28;45375;-86
2022/03/22 03:37:37;;;;;;;;;28.75;26.75;;;;;10.11;59.65;102659.34;2442038;28;44735;-87
2022/03/22 03:38:47;;;;;;;;;34.00;28.00;;;;;10.08;59.74;102668.09;2441511;28;46528;-86
2022/03/22 03:39:58;;;;;;;;;34.25;28.50;;;;;10.09;59.98;102667.22;2443260;28;44681;-87
2022/03/22 03:42:43;;;;;;;;;29.50;28.25;;;;;10.05;59.86;102668.09;2441822;28;45207;-87
2022/03/22 03:43:53;;;;;;;;;30.25;27.50;;;;;10.05;60.06;102668.09;2441137;28;47800;-87
2022/03/22 03:48:02;;;;;;;;;28.75;27.00;;;;;10.01;60.27;102671.59;2441887;28;45169;-86
2022/03/22 03:49:12;;;;;;;;;34.50;28.00;;;;;10.00;59.69;102675.13;2441732;28;45490;-86
2022/03/22 03:50:23;;;;;;;;;35.25;25.75;;;;;9.99;59.95;102662.84;2441678;28;44684;-86
2022/03/22 03:51:35;;;;;;;;;25.50;24.50;;;;;9.98;59.79;102671.59;2441681;28;45421;-85
2022/03/22 03:52:46;;;;;;;;;31.75;28.00;;;;;9.97;59.90;102669.84;2446877;28;45591;-85
2022/03/22 03:53:57;;;;;;;;;34.50;29.75;;;;;9.96;59.87;102670.72;2449301;27;46659;-85
2022/03/22 03:55:08;;;;;;;;;33.25;29.25;;;;;9.95;60.04;102674.22;2441749;28;44617;-84
2022/03/22 03:56:18;;;;;;;;;33.25;27.00;;;;;9.94;59.94;102672.47;2449601;28;46185;-86
2022/03/22 03:57:29;;;;;;;;;30.25;24.50;;;;;9.94;59.90;102675.97;2442440;27;45148;-86
2022/03/22 03:58:39;;;;;;;;;35.00;30.00;;;;;9.93;59.98;102674.22;2441533;28;46402;-85
2022/03/22 03:59:51;;;;;;;;;31.75;29.00;;;;;9.92;59.94;102675.09;2441753;28;45228;-85
2022/03/22 04:01:01;;;;;;;;;30.75;27.50;;;;;9.90;59.86;102675.06;2441852;28;47226;-83
2022/03/22 04:02:12;;;;;;;;;28.00;27.50;;;;;9.90;60.13;102682.97;2444277;27;44669;-84
2022/03/22 04:03:22;;;;;;;;;33.00;29.00;;;;;9.88;60.00;102674.22;2455277;27;45326;-84
2022/03/22 04:04:35;;;;;;;;;28.50;26.00;;;;;9.86;60.19;102675.06;2441908;28;44736;-85
2022/03/22 04:05:45;;;;;;;;;29.75;26.75;;;;;9.88;59.79;102687.34;2446019;28;46976;-83
2022/03/22 04:06:56;;;;;;;;;29.75;25.50;;;;;9.85;60.06;102674.19;2449520;28;45374;-83
2022/03/22 04:08:06;;;;;;;;;34.75;28.00;;;;;9.84;59.99;102677.72;2441607;28;45333;-83
2022/03/22 04:09:17;;;;;;;;;31.75;29.75;;;;;9.84;59.83;102682.97;2441386;28;44727;-83
2022/03/22 04:10:27;;;;;;;;;31.25;29.75;;;;;9.84;59.82;102680.34;2443624;28;45352;-83
2022/03/22 04:11:38;;;;;;;;;33.50;29.00;;;;;9.82;60.10;102682.09;2441539;28;45296;-83
2022/03/22 04:12:48;;;;;;;;;25.75;23.50;;;;;9.82;59.71;102683.84;2441479;28;45239;-85
2022/03/22 04:13:59;;;;;;;;;35.25;28.25;;;;;9.82;59.88;102686.47;2450546;27;44877;-84
2022/03/22 04:15:09;;;;;;;;;37.50;29.25;;;;;9.83;59.70;102682.97;2451260;27;45275;-87
2022/03/22 04:16:20;;;;;;;;;27.00;25.25;;;;;9.81;59.46;102682.06;2456177;27;45230;-86
2022/03/22 04:17:30;;;;;;;;;34.50;28.25;;;;;9.81;60.06;102688.19;2447702;28;47298;-94
2022/03/22 04:18:41;;;;;;;;;31.75;29.50;;;;;9.81;59.75;102693.47;2453618;27;45257;-86
2022/03/22 04:19:51;;;;;;;;;30.50;28.25;;;;;9.79;59.87;102685.59;2449770;27;45196;-87
2022/03/22 04:21:02;;;;;;;;;32.50;28.75;;;;;9.81;59.71;102693.47;2445599;28;45164;-89
2022/03/22 04:22:12;;;;;;;;;30.50;26.50;;;;;9.78;59.93;102681.19;2451256;27;45336;-88
2022/03/22 04:23:23;;;;;;;;;33.00;29.00;;;;;9.78;60.14;102694.31;2451538;27;45456;-88
2022/03/22 04:24:34;;;;;;;;;34.75;28.75;;;;;9.77;60.12;102687.34;2443060;27;46271;-88
2022/03/22 04:25:44;;;;;;;;;40.25;32.50;;;;;9.76;59.89;102684.69;2441515;28;45381;-90
2022/03/22 04:32:41;;;;;;;;;27.75;27.25;;;;;9.76;59.74;102687.31;2441160;28;47215;-90
2022/03/22 04:32:52;;;;;;;;;30.50;26.75;;;;;9.71;59.96;102700.44;2446958;28;45504;-88
2022/03/22 04:34:03;;;;;;;;;33.25;30.75;;;;;9.71;60.00;102694.31;2447279;28;45483;-87
2022/03/22 04:35:19;;;;;;;;;28.00;26.25;;;;;9.67;59.84;102689.06;2443787;28;48354;-94
2022/03/22 04:36:29;;;;;;;;;30.25;25.00;;;;;9.68;59.68;102695.16;2447327;27;45242;-89
2022/03/22 04:37:41;;;;;;;;;29.00;28.50;;;;;9.68;59.74;102698.69;2443355;27;47452;-88
2022/03/22 04:38:51;;;;;;;;;34.00;29.50;;;;;9.67;59.73;102694.31;2447944;28;45286;-91
2022/03/22 04:40:01;;;;;;;;;34.25;27.50;;;;;9.67;59.61;102694.31;2448788;28;46049;-85
2022/03/22 04:41:12;;;;;;;;;32.75;29.50;;;;;9.68;59.88;102695.16;2449129;28;45453;-84
2022/03/22 04:42:22;;;;;;;;;33.50;30.25;;;;;9.67;59.76;102696.06;2445231;27;45505;-84
2022/03/22 04:43:32;;;;;;;;;30.50;28.50;;;;;9.66;59.97;102696.91;2441594;28;45228;-83
2022/03/22 04:44:42;;;;;;;;;33.75;30.75;;;;;9.65;60.17;102698.69;2441279;28;46360;-82
2022/03/22 04:45:53;;;;;;;;;36.00;30.50;;;;;9.66;59.92;102695.19;2441439;28;45275;-81
2022/03/22 04:47:03;;;;;;;;;34.00;30.25;;;;;9.65;59.74;102698.69;2441437;28;45365;-80
2022/03/22 04:48:14;;;;;;;;;33.25;29.25;;;;;9.64;60.00;102698.66;2447646;28;45659;-85
2022/03/22 04:49:26;;;;;;;;;32.00;30.25;;;;;9.64;59.98;102699.56;2447355;28;46844;-84
2022/03/22 04:50:36;;;;;;;;;38.00;30.75;;;;;9.65;60.11;102706.56;2440833;28;45483;-87
2022/03/22 04:57:43;;;;;;;;;35.00;31.00;;;;;9.60;60.10;102708.31;2443987;28;45508;-88
2022/03/22 04:58:53;;;;;;;;;35.50;31.25;;;;;9.60;59.65;102716.19;2442086;28;45359;-88
2022/03/22 05:00:05;;;;;;;;;34.00;31.00;;;;;9.57;60.05;102705.66;2449708;28;47208;-87
2022/03/22 05:01:16;;;;;;;;;33.00;27.75;;;;;9.59;59.76;102708.28;2445827;28;45471;-86
2022/03/22 05:02:26;;;;;;;;;28.75;28.25;;;;;9.60;59.58;102713.56;2441153;28;46366;-86
2022/03/22 05:03:36;;;;;;;;;40.00;32.50;;;;;9.61;59.68;102719.66;2441516;28;45448;-86
2022/03/22 05:04:47;;;;;;;;;32.25;28.00;;;;;9.59;60.14;102717.03;2444242;28;46571;-86
2022/03/22 05:07:27;;;;;;;;;35.00;29.25;;;;;9.55;60.14;102710.91;2440998;28;45425;-86
2022/03/22 05:08:37;;;;;;;;;34.50;30.50;;;;;9.58;59.58;102717.91;2444867;28;45165;-86
2022/03/22 05:09:48;;;;;;;;;33.25;31.00;;;;;9.57;59.90;102710.91;2450331;27;45318;-86
2022/03/22 05:10:59;;;;;;;;;33.00;29.00;;;;;9.58;59.62;102720.53;2447704;28;45228;-85
2022/03/22 05:12:13;;;;;;;;;29.00;25.25;;;;;9.55;59.85;102715.28;2444386;28;45304;-85
2022/03/22 05:13:23;;;;;;;;;33.50;31.50;;;;;9.56;59.94;102717.03;2449647;28;44792;-85
2022/03/22 05:14:35;;;;;;;;;31.75;28.75;;;;;9.57;59.76;102721.41;2445338;27;45314;-85
2022/03/22 05:15:46;;;;;;;;;31.75;30.50;;;;;9.55;59.88;102724.03;2450057;27;45337;-86
2022/03/22 05:16:58;;;;;;;;;34.50;30.50;;;;;9.53;59.95;102717.88;2448113;27;46199;-86
2022/03/22 05:18:08;;;;;;;;;37.50;31.25;;;;;9.55;59.90;102725.78;2441306;28;45421;-86
2022/03/22 05:19:19;;;;;;;;;36.50;32.00;;;;;9.53;60.06;102723.13;2440311;28;46079;-85
2022/03/22 05:20:30;;;;;;;;;32.00;31.00;;;;;9.51;59.97;102719.63;2441736;28;45306;-85
2022/03/22 05:21:40;;;;;;;;;35.25;30.00;;;;;9.50;60.06;102723.16;2447637;28;45279;-85
2022/03/22 05:22:51;;;;;;;;;30.50;25.25;;;;;9.51;60.00;102718.75;2448672;28;45245;-86
2022/03/22 05:24:02;;;;;;;;;29.25;25.75;;;;;9.49;59.63;102717.88;2459579;27;46925;-85
2022/03/22 05:25:12;;;;;;;;;31.75;30.75;;;;;9.51;59.80;102724.00;2452391;27;45274;-86
2022/03/22 05:26:22;;;;;;;;;37.00;29.50;;;;;9.49;59.97;102724.00;2441036;28;45295;-86
2022/03/22 05:27:34;;;;;;;;;32.75;29.50;;;;;9.50;59.99;102730.13;2441455;28;45475;-86
2022/03/22 05:28:45;;;;;;;;;32.75;28.25;;;;;9.50;59.48;102727.50;2440180;28;47156;-86
2022/03/22 05:29:55;;;;;;;;;30.00;28.00;;;;;9.49;59.90;102729.25;2450110;28;45354;-86
2022/03/22 05:31:08;;;;;;;;;35.00;30.75;;;;;9.51;59.48;102734.50;2449867;28;46878;-86
2022/03/22 05:32:18;;;;;;;;;34.75;30.75;;;;;9.50;59.82;102732.75;2448265;28;45184;-83
2022/03/22 05:33:29;;;;;;;;;24.75;23.25;;;;;9.48;59.55;102726.63;2442448;28;46240;-82
2022/03/22 05:34:39;;;;;;;;;33.75;27.75;;;;;9.49;60.25;102731.88;2450516;28;45255;-82
2022/03/22 05:35:49;;;;;;;;;35.75;29.25;;;;;9.49;59.99;102741.50;2441530;27;45181;-83
2022/03/22 05:37:00;;;;;;;;;30.50;25.75;;;;;9.47;60.01;102733.63;2441276;28;45296;-83
2022/03/22 05:38:10;;;;;;;;;32.25;28.00;;;;;9.47;59.62;102727.50;2444394;28;45364;-83
2022/03/22 05:39:20;;;;;;;;;35.50;30.50;;;;;9.48;59.53;102729.25;2442466;28;45220;-82
2022/03/22 05:40:31;;;;;;;;;36.50;31.25;;;;;9.50;59.67;102738.91;2442819;28;46161;-83
2022/03/22 05:41:41;;;;;;;;;28.75;26.25;;;;;9.49;59.68;102733.63;2442747;28;45355;-83
2022/03/22 05:42:52;;;;;;;;;35.50;30.50;;;;;9.48;59.22;102740.66;2443022;28;46319;-83
2022/03/22 05:44:03;;;;;;;;;30.00;28.25;;;;;9.51;59.68;102739.75;2443138;28;45215;-89
2022/03/22 05:45:15;;;;;;;;;29.50;27.25;;;;;9.52;59.33;102742.41;2445541;28;47163;-89
2022/03/22 05:46:25;;;;;;;;;31.00;24.75;;;;;9.53;59.46;102738.03;2452018;28;44679;-89
2022/03/22 05:47:36;;;;;;;;;31.75;31.00;;;;;9.54;59.23;102742.41;2448959;28;45345;-89